createdAt,value
2018-08-30T00:02:01.193Z,24.81
2018-08-30T00:04:32.626Z,24.80
2018-08-30T00:07:03.817Z,24.80
2018-08-30T00:09:35.348Z,24.81
2018-08-30T00:12:06.761Z,24.81
2018-08-30T00:14:38.207Z,24.78
2018-08-30T00:17:09.635Z,24.79
2018-08-30T00:19:40.978Z,24.76
2018-08-30T00:22:12.590Z,24.77
2018-08-30T00:24:45.451Z,24.78
2018-08-30T00:27:16.756Z,24.74
2018-08-30T00:29:47.868Z,24.73
2018-08-30T00:32:18.866Z,24.75
2018-08-30T00:34:50.391Z,24.73
2018-08-30T00:37:21.713Z,24.77
2018-08-30T00:39:53.531Z,24.76
2018-08-30T00:42:24.876Z,24.74
2018-08-30T00:44:56.725Z,24.74
2018-08-30T00:47:27.988Z,24.74
2018-08-30T00:49:59.549Z,24.69
2018-08-30T00:52:30.815Z,24.72
2018-08-30T00:55:01.973Z,24.71
2018-08-30T00:57:33.528Z,24.70
2018-08-30T01:00:05.217Z,24.72
2018-08-30T01:02:36.736Z,24.70
2018-08-30T01:05:08.769Z,24.70
2018-08-30T01:07:40.218Z,24.72
2018-08-30T01:10:11.700Z,24.70
2018-08-30T01:12:48.201Z,24.72
2018-08-30T01:15:19.701Z,24.68
2018-08-30T01:17:51.061Z,24.68
2018-08-30T01:20:23.214Z,24.70
2018-08-30T01:22:54.679Z,24.68
2018-08-30T01:25:26.621Z,24.69
2018-08-30T01:27:58.220Z,24.67
2018-08-30T01:30:29.646Z,24.68
2018-08-30T01:33:01.214Z,24.68
2018-08-30T01:35:32.751Z,24.63
2018-08-30T01:38:04.256Z,24.60
2018-08-30T01:40:35.692Z,24.64
2018-08-30T01:43:07.222Z,24.66
2018-08-30T01:45:38.699Z,24.65
2018-08-30T01:48:10.226Z,24.68
2018-08-30T01:50:41.673Z,24.66
2018-08-30T01:53:13.224Z,24.67
2018-08-30T01:55:44.772Z,24.67
2018-08-30T01:58:16.314Z,24.68
2018-08-30T02:00:47.718Z,24.62
2018-08-30T02:03:19.195Z,24.66
2018-08-30T02:05:50.718Z,24.66
2018-08-30T02:08:22.304Z,24.66
2018-08-30T02:10:53.782Z,24.67
2018-08-30T02:13:25.317Z,24.63
2018-08-30T02:15:57.406Z,24.67
2018-08-30T02:18:28.701Z,24.66
2018-08-30T02:21:00.310Z,24.66
2018-08-30T02:23:31.793Z,24.63
2018-08-30T02:26:03.196Z,24.66
2018-08-30T02:28:34.686Z,24.61
2018-08-30T02:31:06.202Z,24.66
2018-08-30T02:33:37.678Z,24.66
2018-08-30T02:36:09.229Z,24.66
2018-08-30T02:38:40.766Z,24.62
2018-08-30T02:41:12.393Z,24.59
2018-08-30T02:43:43.772Z,24.64
2018-08-30T02:46:15.334Z,24.68
2018-08-30T02:48:46.773Z,24.66
2018-08-30T02:51:18.225Z,24.66
2018-08-30T02:53:49.710Z,24.62
2018-08-30T02:56:21.299Z,24.62
2018-08-30T02:58:52.770Z,24.63
2018-08-30T03:01:24.408Z,24.66
2018-08-30T03:03:55.794Z,24.66
2018-08-30T03:06:27.228Z,24.59
2018-08-30T03:08:58.654Z,24.59
2018-08-30T03:11:30.210Z,24.63
2018-08-30T03:14:01.667Z,24.64
2018-08-30T03:16:33.223Z,24.60
2018-08-30T03:19:04.762Z,24.61
2018-08-30T03:21:36.218Z,24.62
2018-08-30T03:24:07.700Z,24.64
2018-08-30T03:26:39.354Z,24.61
2018-08-30T03:29:10.784Z,24.61
2018-08-30T03:31:42.223Z,24.57
2018-08-30T03:34:13.745Z,24.61
2018-08-30T03:36:45.740Z,24.62
2018-08-30T03:39:17.304Z,24.56
2018-08-30T03:41:48.844Z,24.60
2018-08-30T03:44:20.407Z,24.61
2018-08-30T03:46:51.875Z,24.61
2018-08-30T03:49:24.796Z,24.60
2018-08-30T03:51:56.318Z,24.61
2018-08-30T03:54:27.825Z,24.60
2018-08-30T03:56:59.377Z,24.58
2018-08-30T03:59:30.817Z,24.58
2018-08-30T04:02:02.452Z,24.59
2018-08-30T04:04:33.516Z,24.58
2018-08-30T04:07:04.914Z,24.59
2018-08-30T04:09:35.590Z,24.59
2018-08-30T04:12:07.233Z,24.61
2018-08-30T04:14:38.656Z,24.59
2018-08-30T04:17:10.199Z,24.58
2018-08-30T04:19:41.740Z,24.56
2018-08-30T04:22:13.288Z,24.58
2018-08-30T04:24:44.748Z,24.59
2018-08-30T04:27:16.009Z,24.61
2018-08-30T04:29:47.271Z,24.59
2018-08-30T04:32:18.754Z,24.58
2018-08-30T04:34:50.351Z,24.59
2018-08-30T04:37:21.796Z,24.58
2018-08-30T04:39:53.432Z,24.59
2018-08-30T04:42:24.960Z,24.59
2018-08-30T04:44:56.529Z,24.57
2018-08-30T04:47:28.223Z,24.58
2018-08-30T04:49:59.753Z,24.59
2018-08-30T04:52:31.342Z,24.57
2018-08-30T04:55:02.779Z,24.57
2018-08-30T04:57:33.896Z,24.59
2018-08-30T05:00:04.304Z,24.57
2018-08-30T05:02:35.818Z,24.57
2018-08-30T05:05:07.362Z,24.59
2018-08-30T05:07:39.199Z,24.57
2018-08-30T05:10:10.740Z,24.56
2018-08-30T05:12:42.367Z,24.55
2018-08-30T05:15:13.786Z,24.57
2018-08-30T05:17:45.301Z,24.59
2018-08-30T05:20:16.907Z,24.59
2018-08-30T05:22:47.598Z,24.60
2018-08-30T05:25:19.207Z,24.60
2018-08-30T05:27:50.721Z,24.60
2018-08-30T05:30:22.310Z,24.56
2018-08-30T05:32:53.866Z,24.60
2018-08-30T05:35:25.786Z,24.60
2018-08-30T05:37:57.703Z,24.58
2018-08-30T05:40:29.319Z,24.65
2018-08-30T05:43:00.780Z,24.64
2018-08-30T05:45:32.207Z,24.63
2018-08-30T05:48:03.698Z,24.63
2018-08-30T05:50:35.345Z,24.63
2018-08-30T05:53:06.997Z,24.62
2018-08-30T05:55:38.710Z,24.61
2018-08-30T05:58:10.398Z,24.61
2018-08-30T06:00:42.221Z,24.60
2018-08-30T06:03:13.676Z,24.59
2018-08-30T06:05:45.188Z,24.59
2018-08-30T06:08:16.720Z,24.58
2018-08-30T06:10:48.439Z,24.57
2018-08-30T06:13:19.880Z,24.54
2018-08-30T06:15:51.566Z,24.53
2018-08-30T06:18:23.218Z,24.53
2018-08-30T06:20:54.790Z,24.52
2018-08-30T06:23:26.210Z,24.48
2018-08-30T06:25:57.915Z,24.52
2018-08-30T06:28:28.607Z,24.52
2018-08-30T06:31:00.207Z,24.51
2018-08-30T06:33:31.705Z,24.51
2018-08-30T06:36:03.226Z,24.47
2018-08-30T06:38:34.830Z,24.51
2018-08-30T06:41:06.462Z,24.49
2018-08-30T06:43:37.988Z,24.49
2018-08-30T06:46:09.644Z,24.50
2018-08-30T06:48:41.323Z,24.49
2018-08-30T06:51:12.739Z,24.50
2018-08-30T06:53:44.037Z,24.48
2018-08-30T06:56:15.511Z,24.48
2018-08-30T06:58:47.198Z,24.45
2018-08-30T07:01:18.686Z,24.42
2018-08-30T07:03:50.224Z,24.45
2018-08-30T07:06:21.733Z,24.45
2018-08-30T07:08:53.655Z,24.46
2018-08-30T07:11:25.304Z,24.45
2018-08-30T07:13:56.808Z,24.41
2018-08-30T07:16:28.357Z,24.47
2018-08-30T07:18:59.794Z,24.45
2018-08-30T07:21:31.361Z,24.42
2018-08-30T07:24:02.585Z,24.43
2018-08-30T07:26:34.216Z,24.45
2018-08-30T07:29:05.645Z,24.42
2018-08-30T07:31:37.226Z,24.45
2018-08-30T07:34:08.703Z,24.45
2018-08-30T07:36:40.310Z,24.42
2018-08-30T07:39:13.701Z,24.42
2018-08-30T07:41:45.419Z,24.45
2018-08-30T07:44:17.304Z,24.43
2018-08-30T07:46:48.731Z,24.45
2018-08-30T07:49:20.444Z,24.45
2018-08-30T07:51:51.988Z,24.46
2018-08-30T07:54:23.571Z,24.48
2018-08-30T07:56:54.885Z,24.47
2018-08-30T07:59:26.426Z,24.47
2018-08-30T08:01:57.797Z,24.49
2018-08-30T08:04:29.310Z,24.52
2018-08-30T08:07:00.944Z,24.51
2018-08-30T08:09:38.226Z,24.52
2018-08-30T08:12:09.753Z,24.52
2018-08-30T08:14:41.385Z,24.46
2018-08-30T08:17:12.792Z,24.55
2018-08-30T08:19:44.300Z,24.57
2018-08-30T08:22:15.797Z,24.58
2018-08-30T08:24:47.425Z,24.57
2018-08-30T08:27:21.986Z,24.57
2018-08-30T08:29:53.666Z,24.58
2018-08-30T08:32:25.198Z,24.57
2018-08-30T08:34:56.786Z,24.57
2018-08-30T08:37:27.781Z,24.59
2018-08-30T08:39:58.804Z,24.57
2018-08-30T08:42:30.455Z,24.57
2018-08-30T08:45:01.872Z,24.53
2018-08-30T08:47:33.402Z,24.54
2018-08-30T08:50:05.255Z,24.53
2018-08-30T08:52:36.745Z,24.56
2018-08-30T08:55:08.206Z,24.56
2018-08-30T08:57:39.694Z,24.53
2018-08-30T09:00:11.307Z,24.51
2018-08-30T09:02:42.801Z,24.51
2018-08-30T09:05:14.424Z,24.53
2018-08-30T09:07:46.018Z,24.54
2018-08-30T09:10:17.682Z,24.52
2018-08-30T09:12:49.193Z,24.54
2018-08-30T09:15:20.684Z,24.54
2018-08-30T09:17:52.286Z,24.54
2018-08-30T09:20:23.756Z,24.53
2018-08-30T09:22:55.206Z,24.52
2018-08-30T09:25:26.718Z,24.51
2018-08-30T09:27:58.317Z,24.52
2018-08-30T09:30:29.850Z,24.52
2018-08-30T09:33:01.571Z,24.51
2018-08-30T09:35:33.220Z,24.52
2018-08-30T09:38:04.677Z,24.50
2018-08-30T09:40:36.193Z,24.47
2018-08-30T09:43:07.761Z,24.47
2018-08-30T09:45:39.657Z,24.47
2018-08-30T09:48:11.297Z,24.47
2018-08-30T09:50:42.796Z,24.48
2018-08-30T09:53:14.744Z,24.49
2018-08-30T09:55:46.393Z,24.48
2018-08-30T09:58:17.920Z,24.43
2018-08-30T10:00:53.592Z,24.43
2018-08-30T10:03:24.993Z,24.44
2018-08-30T10:05:56.650Z,24.42
2018-08-30T10:08:28.222Z,24.41
2018-08-30T10:10:59.726Z,24.43
2018-08-30T10:13:31.563Z,24.45
2018-08-30T10:16:03.343Z,24.45
2018-08-30T10:18:35.013Z,24.47
2018-08-30T10:21:06.720Z,24.47
2018-08-30T10:23:38.305Z,24.47
2018-08-30T10:26:09.887Z,24.46
2018-08-30T10:28:41.449Z,24.49
2018-08-30T10:31:12.889Z,24.49
2018-08-30T10:33:44.390Z,24.52
2018-08-30T10:36:15.807Z,24.55
2018-08-30T10:38:47.349Z,24.56
2018-08-30T10:41:18.905Z,24.56
2018-08-30T10:43:49.794Z,24.56
2018-08-30T10:46:21.810Z,24.55
2018-08-30T10:48:54.211Z,24.52
2018-08-30T10:51:25.709Z,24.53
2018-08-30T10:53:57.344Z,24.53
2018-08-30T10:56:29.216Z,24.49
2018-08-30T10:59:00.745Z,24.48
2018-08-30T11:01:32.397Z,24.42
2018-08-30T11:04:03.901Z,24.48
2018-08-30T11:06:35.559Z,24.47
2018-08-30T11:09:09.487Z,24.46
2018-08-30T11:11:40.975Z,24.45
2018-08-30T11:14:12.637Z,24.45
2018-08-30T11:16:44.224Z,24.45
2018-08-30T11:19:16.599Z,24.44
2018-08-30T11:21:48.230Z,24.45
2018-08-30T11:24:19.793Z,24.42
2018-08-30T11:26:51.447Z,24.39
2018-08-30T11:29:23.219Z,24.41
2018-08-30T11:31:54.734Z,24.40
2018-08-30T11:34:26.331Z,24.43
2018-08-30T11:36:57.755Z,24.43
2018-08-30T11:39:28.791Z,24.43
2018-08-30T11:42:00.535Z,24.41
2018-08-30T11:44:31.968Z,24.42
2018-08-30T11:47:03.525Z,24.41
2018-08-30T11:49:35.226Z,24.45
2018-08-30T11:52:06.809Z,24.40
2018-08-30T11:54:38.314Z,24.43
2018-08-30T11:57:09.759Z,24.42
2018-08-30T11:59:41.044Z,24.42
2018-08-30T12:02:12.712Z,24.41
2018-08-30T12:04:44.349Z,24.44
2018-08-30T12:07:15.797Z,24.44
2018-08-30T12:09:47.306Z,24.47
2018-08-30T12:12:18.785Z,24.44
2018-08-30T12:14:50.538Z,24.46
2018-08-30T12:17:21.908Z,24.45
2018-08-30T12:19:54.427Z,24.44
2018-08-30T12:22:25.900Z,24.44
2018-08-30T12:24:56.526Z,24.46
2018-08-30T12:27:27.991Z,24.44
2018-08-30T12:29:59.719Z,24.41
2018-08-30T12:32:31.403Z,24.42
2018-08-30T12:35:03.053Z,24.41
2018-08-30T12:37:34.644Z,24.45
2018-08-30T12:40:06.347Z,24.44
2018-08-30T12:42:37.787Z,24.40
2018-08-30T12:45:09.501Z,24.42
2018-08-30T12:47:41.217Z,24.45
2018-08-30T12:50:12.925Z,24.45
2018-08-30T12:52:44.400Z,24.38
2018-08-30T12:55:16.042Z,24.42
2018-08-30T12:57:47.549Z,24.45
2018-08-30T13:00:19.356Z,24.46
2018-08-30T13:02:50.936Z,24.44
2018-08-30T13:05:22.609Z,24.45
2018-08-30T13:07:54.402Z,24.46
2018-08-30T13:10:26.010Z,24.48
2018-08-30T13:12:57.612Z,24.47
2018-08-30T13:15:29.455Z,24.42
2018-08-30T13:18:01.209Z,24.39
2018-08-30T13:20:33.039Z,24.40
2018-08-30T13:23:04.766Z,24.39
2018-08-30T13:25:36.546Z,24.40
2018-08-30T13:28:08.374Z,24.42
2018-08-30T13:30:40.021Z,24.40
2018-08-30T13:33:19.372Z,24.39
2018-08-30T13:35:43.305Z,24.37
2018-08-30T13:38:15.309Z,24.41
2018-08-30T13:40:47.097Z,24.45
2018-08-30T13:43:18.818Z,24.45
2018-08-30T13:45:50.226Z,24.46
2018-08-30T13:48:21.912Z,24.48
2018-08-30T13:50:53.729Z,24.47
2018-08-30T13:53:25.389Z,24.44
2018-08-30T13:55:55.827Z,24.45
2018-08-30T13:58:27.597Z,24.44
2018-08-30T14:00:59.481Z,24.44
2018-08-30T14:03:30.895Z,24.42
2018-08-30T14:06:02.592Z,24.40
2018-08-30T14:08:33.999Z,24.39
2018-08-30T14:11:05.750Z,24.39
2018-08-30T14:13:36.993Z,24.39
2018-08-30T14:16:08.677Z,24.38
2018-08-30T14:18:40.043Z,24.36
2018-08-30T14:21:11.749Z,24.37
2018-08-30T14:23:43.526Z,24.38
2018-08-30T14:26:14.878Z,24.37
2018-08-30T14:28:46.417Z,24.37
2018-08-30T14:31:17.847Z,24.37
2018-08-30T14:33:49.201Z,24.38
2018-08-30T14:36:20.706Z,24.37
2018-08-30T14:38:52.320Z,24.35
2018-08-30T14:41:24.522Z,24.37
2018-08-30T14:43:55.687Z,24.36
2018-08-30T14:46:27.254Z,24.37
2018-08-30T14:48:58.737Z,24.36
2018-08-30T14:51:30.418Z,24.30
2018-08-30T14:54:01.831Z,24.37
2018-08-30T14:56:33.425Z,24.39
2018-08-30T14:59:04.846Z,24.39
2018-08-30T15:01:36.456Z,24.36
2018-08-30T15:04:08.232Z,24.39
2018-08-30T15:06:39.908Z,24.42
2018-08-30T15:09:11.586Z,24.38
2018-08-30T15:11:43.793Z,24.37
2018-08-30T15:14:15.244Z,24.37
2018-08-30T15:16:46.785Z,24.39
2018-08-30T15:19:18.484Z,24.33
2018-08-30T15:21:49.832Z,24.41
2018-08-30T15:24:21.559Z,24.40
2018-08-30T15:26:53.023Z,24.41
2018-08-30T15:29:23.738Z,24.46
2018-08-30T15:31:55.253Z,24.49
2018-08-30T15:37:03.593Z,24.50
2018-08-30T15:39:46.761Z,24.48
2018-08-30T15:42:18.418Z,24.48
2018-08-30T15:44:50.337Z,24.48
2018-08-30T15:47:22.536Z,24.48
2018-08-30T15:49:54.230Z,24.51
2018-08-30T15:52:25.708Z,24.50
2018-08-30T15:54:57.238Z,24.51
2018-08-30T15:57:28.819Z,24.51
2018-08-30T16:00:00.577Z,24.52
2018-08-30T16:02:32.387Z,24.51
2018-08-30T16:05:03.847Z,24.48
2018-08-30T16:07:35.517Z,24.50
2018-08-30T16:10:07.659Z,24.49
2018-08-30T16:12:39.221Z,24.51
2018-08-30T16:15:10.753Z,24.48
2018-08-30T16:17:42.320Z,24.48
2018-08-30T16:20:13.907Z,24.46
2018-08-30T16:23:14.145Z,24.47
2018-08-30T16:25:45.709Z,24.43
2018-08-30T16:28:17.395Z,24.41
2018-08-30T16:30:48.854Z,24.41
2018-08-30T16:33:20.482Z,24.40
2018-08-30T16:38:35.666Z,24.40
2018-08-30T16:41:06.721Z,24.39
2018-08-30T16:43:37.742Z,24.34
2018-08-30T16:46:08.755Z,24.35
2018-08-30T16:48:39.916Z,24.27
2018-08-30T16:51:11.221Z,24.33
2018-08-30T16:53:42.450Z,24.33
2018-08-30T16:56:14.803Z,24.27
2018-08-30T17:01:23.618Z,24.27
2018-08-30T17:03:54.725Z,24.28
2018-08-30T17:06:25.959Z,24.28
2018-08-30T17:08:56.383Z,24.26
2018-08-30T17:11:28.475Z,24.23
2018-08-30T17:13:59.655Z,24.24
2018-08-30T17:16:30.761Z,24.24
2018-08-30T17:19:23.489Z,24.24
2018-08-30T17:21:54.729Z,24.20
2018-08-30T17:24:25.843Z,24.17
2018-08-30T17:26:56.842Z,24.19
2018-08-30T17:29:27.894Z,24.19
2018-08-30T17:31:58.839Z,24.22
2018-08-30T17:34:30.013Z,24.21
2018-08-30T17:37:01.255Z,24.18
2018-08-30T17:39:32.661Z,24.19
2018-08-30T17:42:03.734Z,24.15
2018-08-30T17:44:34.873Z,24.17
2018-08-30T17:47:06.383Z,24.16
2018-08-30T17:49:37.770Z,24.18
2018-08-30T17:52:09.304Z,24.13
2018-08-30T17:54:40.907Z,24.10
2018-08-30T17:57:22.702Z,24.14
2018-08-30T18:00:05.749Z,24.15
2018-08-30T18:02:37.469Z,24.14
2018-08-30T18:10:27.408Z,24.07
2018-08-30T18:12:58.636Z,24.06
2018-08-30T18:15:29.803Z,24.06
2018-08-30T18:18:00.834Z,24.06
2018-08-30T18:20:31.838Z,24.08
2018-08-30T18:23:03.529Z,24.06
2018-08-30T18:25:34.636Z,24.04
2018-08-30T18:28:05.681Z,24.05
2018-08-30T18:30:36.877Z,24.04
2018-08-30T18:33:07.867Z,24.01
2018-08-30T18:35:38.849Z,24.01
2018-08-30T18:38:09.871Z,24.00
2018-08-30T18:40:40.839Z,24.01
2018-08-30T18:43:11.885Z,24.00
2018-08-30T18:45:42.971Z,24.00
2018-08-30T18:48:13.439Z,23.99
2018-08-30T18:50:44.653Z,23.97
2018-08-30T18:53:15.686Z,23.96
2018-08-30T18:55:46.709Z,23.94
2018-08-30T18:58:17.900Z,23.94
2018-08-30T19:00:49.642Z,23.94
2018-08-30T19:03:21.214Z,23.94
2018-08-30T19:05:52.720Z,23.93
2018-08-30T19:08:24.280Z,23.94
2018-08-30T19:10:55.802Z,23.91
2018-08-30T19:13:27.292Z,23.95
2018-08-30T19:16:03.636Z,23.94
2018-08-30T19:18:40.357Z,23.88
2018-08-30T19:21:11.825Z,23.89
2018-08-30T19:23:43.385Z,23.87
2018-08-30T19:26:14.795Z,23.90
2018-08-30T19:28:46.381Z,23.90
2018-08-30T19:31:17.764Z,23.88
2018-08-30T19:33:49.437Z,23.88
2018-08-30T19:36:25.914Z,23.89
2018-08-30T19:38:57.635Z,23.90
2018-08-30T19:41:29.213Z,23.88
2018-08-30T19:44:00.727Z,23.84
2018-08-30T19:46:32.325Z,23.84
2018-08-30T19:49:03.739Z,23.80
2018-08-30T19:51:35.288Z,23.80
2018-08-30T19:54:06.704Z,23.80
2018-08-30T19:56:38.304Z,23.83
2018-08-30T19:59:09.780Z,23.80
2018-08-30T20:01:40.887Z,23.80
2018-08-30T20:04:12.392Z,23.76
2018-08-30T20:06:43.785Z,23.77
2018-08-30T20:09:14.810Z,23.79
2018-08-30T20:11:45.743Z,23.76
2018-08-30T20:14:17.315Z,23.72
2018-08-30T20:16:48.755Z,23.74
2018-08-30T20:19:20.317Z,23.74
2018-08-30T20:21:51.811Z,23.76
2018-08-30T20:24:23.544Z,23.74
2018-08-30T20:26:54.912Z,23.72
2018-08-30T20:29:26.537Z,23.74
2018-08-30T20:31:58.211Z,23.73
2018-08-30T20:34:29.705Z,23.70
2018-08-30T20:37:01.209Z,23.70
2018-08-30T20:39:32.778Z,23.73
2018-08-30T20:42:04.329Z,23.74
2018-08-30T20:44:35.874Z,23.74
2018-08-30T20:47:07.541Z,23.71
2018-08-30T20:49:39.194Z,23.71
2018-08-30T20:52:10.760Z,23.72
2018-08-30T20:54:42.301Z,23.71
2018-08-30T20:57:13.850Z,23.67
2018-08-30T20:59:45.586Z,23.66
2018-08-30T21:02:17.213Z,23.66
2018-08-30T21:04:48.756Z,23.69
2018-08-30T21:07:20.467Z,23.68
2018-08-30T21:09:52.019Z,23.70
2018-08-30T21:12:23.711Z,23.70
2018-08-30T21:14:55.330Z,23.71
2018-08-30T21:17:26.899Z,23.69
2018-08-30T21:19:57.592Z,23.66
2018-08-30T21:22:29.211Z,23.66
2018-08-30T21:25:00.719Z,23.68
2018-08-30T21:27:32.421Z,23.67
2018-08-30T21:30:03.903Z,23.70
2018-08-30T21:32:34.642Z,23.68
2018-08-30T21:35:06.206Z,23.68
2018-08-30T21:37:37.809Z,23.70
2018-08-30T21:40:09.381Z,23.71
2018-08-30T21:42:40.859Z,23.71
2018-08-30T21:45:12.530Z,23.69
2018-08-30T21:47:44.196Z,23.70
2018-08-30T21:50:15.711Z,23.70
2018-08-30T21:52:47.355Z,23.71
2018-08-30T21:55:18.821Z,23.71
2018-08-30T21:57:50.445Z,23.71
2018-08-30T22:00:22.188Z,23.70
2018-08-30T22:02:53.800Z,23.70
2018-08-30T22:05:25.314Z,23.69
2018-08-30T22:07:56.789Z,23.65
2018-08-30T22:10:28.303Z,23.68
2018-08-30T22:12:59.834Z,23.70
2018-08-30T22:15:31.437Z,23.70
2018-08-30T22:18:02.854Z,23.64
2018-08-30T22:20:34.666Z,23.65
2018-08-30T22:23:06.702Z,23.65
2018-08-30T22:25:38.217Z,23.65
2018-08-30T22:28:09.904Z,23.63
2018-08-30T22:30:41.537Z,23.63
2018-08-30T22:33:12.905Z,23.63
2018-08-30T22:35:43.593Z,23.67
2018-08-30T22:38:15.190Z,23.64
2018-08-30T22:40:46.836Z,23.66
2018-08-30T22:43:18.385Z,23.66
2018-08-30T22:45:49.731Z,23.68
2018-08-30T22:48:21.317Z,23.66
2018-08-30T22:50:52.892Z,23.64
2018-08-30T22:53:24.649Z,23.65
2018-08-30T22:55:56.203Z,23.64
2018-08-30T22:58:27.675Z,23.63
2018-08-30T23:00:58.974Z,23.64
2018-08-30T23:03:30.724Z,23.63
2018-08-30T23:06:02.410Z,23.62
2018-08-30T23:08:33.865Z,23.63
2018-08-30T23:11:05.378Z,23.62
2018-08-30T23:13:37.377Z,23.62
2018-08-30T23:16:09.222Z,23.60
2018-08-30T23:18:40.773Z,23.62
2018-08-30T23:21:12.647Z,23.60
2018-08-30T23:23:44.581Z,23.57
2018-08-30T23:26:16.191Z,23.61
2018-08-30T23:28:47.726Z,23.59
2018-08-30T23:31:19.160Z,23.57
2018-08-30T23:33:50.716Z,23.55
2018-08-30T23:36:22.227Z,23.54
2018-08-30T23:38:53.754Z,23.55
2018-08-30T23:41:25.318Z,23.55
2018-08-30T23:43:56.748Z,23.53
2018-08-30T23:46:28.414Z,23.52
2018-08-30T23:48:59.913Z,23.54
2018-08-30T23:51:30.609Z,23.52
2018-08-30T23:54:02.214Z,23.51
2018-08-30T23:56:33.765Z,23.56
2018-08-30T23:59:27.839Z,23.48
